Huntsville, Utah
Current Conditions -  °F | °C
As of 6:53 AM on Sunday 21 Dec 2014 (Local Time) from KOGD Reporting Station
Light Rain Light Rain  
Wind Chill: 30°   Ceiling: 2500
Heat Index: 37°   Visibility: 4mi
Dew Point: 36°   Wind: 10mph
Humidity: 96%   Direction: 160°SSE
Pressure: 29.97"   Gusts: NA
Location:  41.26°N, 111.77°W
Report Text: KOGD 211353Z AUTO 16009KT 4SM -RA BR OVC025 03/02 A2997 RMK AO2 SLP147 P0002 T00280022 TSNO
Loading
Personal Weather Stations






























Interactive Weather Map New forecast layout! Learn more

10-Day Weather Forecast

Advertisements
Track Severe Weather on mobile